sensor_id;sensor_type;location;lat;lon;timestamp;temperature;humidity
44463;DHT22;30170;52.190;8.702;2022-11-15T00:00:45;9.50;99.90
44463;DHT22;30170;52.190;8.702;2022-11-15T00:03:16;9.40;99.90
44463;DHT22;30170;52.190;8.702;2022-11-15T00:05:42;9.60;99.90
44463;DHT22;30170;52.190;8.702;2022-11-15T00:08:09;9.50;99.90
44463;DHT22;30170;52.190;8.702;2022-11-15T00:10:36;9.70;99.90
44463;DHT22;30170;52.190;8.702;2022-11-15T00:13:06;9.70;99.90
44463;DHT22;30170;52.190;8.702;2022-11-15T00:15:37;9.70;99.90
44463;DHT22;30170;52.190;8.702;2022-11-15T00:18:04;9.80;99.90
44463;DHT22;30170;52.190;8.702;2022-11-15T00:20:33;9.90;99.90
44463;DHT22;30170;52.190;8.702;2022-11-15T00:23:00;9.90;99.90
44463;DHT22;30170;52.190;8.702;2022-11-15T00:25:29;10.00;99.90
44463;DHT22;30170;52.190;8.702;2022-11-15T00:27:57;10.00;99.90
44463;DHT22;30170;52.190;8.702;2022-11-15T00:30:24;10.10;99.90
44463;DHT22;30170;52.190;8.702;2022-11-15T00:32:50;10.00;99.90
44463;DHT22;30170;52.190;8.702;2022-11-15T00:35:17;10.10;99.90
44463;DHT22;30170;52.190;8.702;2022-11-15T00:37:44;10.00;99.90
44463;DHT22;30170;52.190;8.702;2022-11-15T00:40:13;10.10;99.90
44463;DHT22;30170;52.190;8.702;2022-11-15T00:42:40;10.00;99.90
44463;DHT22;30170;52.190;8.702;2022-11-15T00:45:07;10.10;99.90
44463;DHT22;30170;52.190;8.702;2022-11-15T00:47:33;10.00;99.90
44463;DHT22;30170;52.190;8.702;2022-11-15T00:50:00;10.10;99.90
44463;DHT22;30170;52.190;8.702;2022-11-15T00:52:27;10.10;99.90
44463;DHT22;30170;52.190;8.702;2022-11-15T00:54:53;10.10;99.90
44463;DHT22;30170;52.190;8.702;2022-11-15T00:57:20;10.10;99.90
44463;DHT22;30170;52.190;8.702;2022-11-15T00:59:47;10.20;99.90
44463;DHT22;30170;52.190;8.702;2022-11-15T01:02:13;10.20;99.90
44463;DHT22;30170;52.190;8.702;2022-11-15T01:04:40;10.30;99.90
44463;DHT22;30170;52.190;8.702;2022-11-15T01:07:07;10.20;99.90
44463;DHT22;30170;52.190;8.702;2022-11-15T01:09:33;10.30;99.90
44463;DHT22;30170;52.190;8.702;2022-11-15T01:12:00;10.30;99.90
44463;DHT22;30170;52.190;8.702;2022-11-15T01:14:27;10.40;99.90
44463;DHT22;30170;52.190;8.702;2022-11-15T01:16:54;10.40;99.90
44463;DHT22;30170;52.190;8.702;2022-11-15T01:19:20;10.40;99.90
44463;DHT22;30170;52.190;8.702;2022-11-15T01:21:50;10.50;99.90
44463;DHT22;30170;52.190;8.702;2022-11-15T01:24:17;10.70;99.90
44463;DHT22;30170;52.190;8.702;2022-11-15T01:26:43;10.50;99.90
44463;DHT22;30170;52.190;8.702;2022-11-15T01:29:10;10.60;99.90
44463;DHT22;30170;52.190;8.702;2022-11-15T01:31:37;10.70;99.90
44463;DHT22;30170;52.190;8.702;2022-11-15T01:34:04;10.80;99.90
44463;DHT22;30170;52.190;8.702;2022-11-15T01:36:31;10.80;99.90
44463;DHT22;30170;52.190;8.702;2022-11-15T01:38:57;10.80;99.90
44463;DHT22;30170;52.190;8.702;2022-11-15T01:41:29;10.90;99.90
44463;DHT22;30170;52.190;8.702;2022-11-15T01:43:57;10.90;99.90
44463;DHT22;30170;52.190;8.702;2022-11-15T01:46:27;11.10;99.90
44463;DHT22;30170;52.190;8.702;2022-11-15T01:48:55;11.00;99.90
44463;DHT22;30170;52.190;8.702;2022-11-15T01:51:23;11.10;99.90
44463;DHT22;30170;52.190;8.702;2022-11-15T01:53:52;11.20;99.90
44463;DHT22;30170;52.190;8.702;2022-11-15T01:56:21;11.20;99.90
44463;DHT22;30170;52.190;8.702;2022-11-15T01:58:48;11.20;99.90
44463;DHT22;30170;52.190;8.702;2022-11-15T02:01:15;11.20;99.90
44463;DHT22;30170;52.190;8.702;2022-11-15T02:03:49;11.30;99.90
44463;DHT22;30170;52.190;8.702;2022-11-15T02:06:16;11.20;99.90
44463;DHT22;30170;52.190;8.702;2022-11-15T02:08:44;11.30;99.90
44463;DHT22;30170;52.190;8.702;2022-11-15T02:11:11;11.30;99.90
44463;DHT22;30170;52.190;8.702;2022-11-15T02:13:37;11.40;99.90
44463;DHT22;30170;52.190;8.702;2022-11-15T02:18:49;11.30;99.90
44463;DHT22;30170;52.190;8.702;2022-11-15T02:29:46;11.20;99.90
44463;DHT22;30170;52.190;8.702;2022-11-15T02:33:19;11.30;99.90
44463;DHT22;30170;52.190;8.702;2022-11-15T02:35:37;11.40;99.90
44463;DHT22;30170;52.190;8.702;2022-11-15T02:38:02;11.30;99.90
44463;DHT22;30170;52.190;8.702;2022-11-15T02:40:37;11.40;99.90
44463;DHT22;30170;52.190;8.702;2022-11-15T02:43:09;11.40;99.90
44463;DHT22;30170;52.190;8.702;2022-11-15T02:46:01;11.30;99.90
44463;DHT22;30170;52.190;8.702;2022-11-15T02:48:31;11.40;99.90
44463;DHT22;30170;52.190;8.702;2022-11-15T02:50:58;11.40;99.90
44463;DHT22;30170;52.190;8.702;2022-11-15T02:53:25;11.40;99.90
44463;DHT22;30170;52.190;8.702;2022-11-15T02:55:52;11.40;99.90
44463;DHT22;30170;52.190;8.702;2022-11-15T03:01:00;11.30;99.90
44463;DHT22;30170;52.190;8.702;2022-11-15T03:03:35;11.20;99.90
44463;DHT22;30170;52.190;8.702;2022-11-15T03:06:42;11.20;99.90
44463;DHT22;30170;52.190;8.702;2022-11-15T03:11:32;11.20;99.90
44463;DHT22;30170;52.190;8.702;2022-11-15T03:19:09;11.10;99.90
44463;DHT22;30170;52.190;8.702;2022-11-15T03:21:39;11.10;99.90
44463;DHT22;30170;52.190;8.702;2022-11-15T03:24:06;11.00;99.90
44463;DHT22;30170;52.190;8.702;2022-11-15T03:26:34;11.10;99.90
44463;DHT22;30170;52.190;8.702;2022-11-15T03:29:07;11.10;99.90
44463;DHT22;30170;52.190;8.702;2022-11-15T03:31:36;11.10;99.90
44463;DHT22;30170;52.190;8.702;2022-11-15T03:36:47;11.10;99.90
44463;DHT22;30170;52.190;8.702;2022-11-15T03:39:14;11.20;99.90
44463;DHT22;30170;52.190;8.702;2022-11-15T03:46:40;11.30;99.90
44463;DHT22;30170;52.190;8.702;2022-11-15T03:49:10;11.30;99.90
44463;DHT22;30170;52.190;8.702;2022-11-15T03:51:38;11.40;99.90
44463;DHT22;30170;52.190;8.702;2022-11-15T03:54:05;11.40;99.90
44463;DHT22;30170;52.190;8.702;2022-11-15T03:56:32;11.30;99.90
44463;DHT22;30170;52.190;8.702;2022-11-15T03:58:58;11.50;99.90
44463;DHT22;30170;52.190;8.702;2022-11-15T04:01:25;11.40;99.90
44463;DHT22;30170;52.190;8.702;2022-11-15T04:03:52;11.30;99.90
44463;DHT22;30170;52.190;8.702;2022-11-15T04:06:19;11.60;99.90
44463;DHT22;30170;52.190;8.702;2022-11-15T04:08:45;11.40;99.90
44463;DHT22;30170;52.190;8.702;2022-11-15T04:11:13;11.60;99.90
44463;DHT22;30170;52.190;8.702;2022-11-15T04:13:40;11.50;99.90
44463;DHT22;30170;52.190;8.702;2022-11-15T04:16:06;11.50;99.90
44463;DHT22;30170;52.190;8.702;2022-11-15T04:18:33;12.10;99.90
44463;DHT22;30170;52.190;8.702;2022-11-15T04:20:59;11.50;99.90
44463;DHT22;30170;52.190;8.702;2022-11-15T04:23:45;11.50;99.90
44463;DHT22;30170;52.190;8.702;2022-11-15T04:26:32;11.60;99.90
44463;DHT22;30170;52.190;8.702;2022-11-15T04:28:59;11.60;99.90
44463;DHT22;30170;52.190;8.702;2022-11-15T04:31:44;11.60;99.90
44463;DHT22;30170;52.190;8.702;2022-11-15T04:34:10;11.50;99.90
44463;DHT22;30170;52.190;8.702;2022-11-15T04:36:37;11.90;99.90
44463;DHT22;30170;52.190;8.702;2022-11-15T04:39:22;11.80;99.90
44463;DHT22;30170;52.190;8.702;2022-11-15T04:41:49;11.60;99.90
44463;DHT22;30170;52.190;8.702;2022-11-15T04:44:15;11.60;99.90
44463;DHT22;30170;52.190;8.702;2022-11-15T04:46:42;12.10;99.90
44463;DHT22;30170;52.190;8.702;2022-11-15T04:49:09;11.50;99.90
44463;DHT22;30170;52.190;8.702;2022-11-15T04:51:36;11.40;99.90
44463;DHT22;30170;52.190;8.702;2022-11-15T04:54:02;11.50;99.90
44463;DHT22;30170;52.190;8.702;2022-11-15T04:56:29;11.40;99.90
44463;DHT22;30170;52.190;8.702;2022-11-15T04:58:56;11.40;99.90
44463;DHT22;30170;52.190;8.702;2022-11-15T05:01:22;11.40;99.90
44463;DHT22;30170;52.190;8.702;2022-11-15T05:03:49;11.50;99.90
44463;DHT22;30170;52.190;8.702;2022-11-15T05:06:34;11.50;99.90
44463;DHT22;30170;52.190;8.702;2022-11-15T05:09:01;11.50;99.90
44463;DHT22;30170;52.190;8.702;2022-11-15T05:11:28;11.50;99.90
44463;DHT22;30170;52.190;8.702;2022-11-15T05:13:54;11.50;99.90
44463;DHT22;30170;52.190;8.702;2022-11-15T05:16:21;11.50;99.90
44463;DHT22;30170;52.190;8.702;2022-11-15T05:18:52;12.20;99.90
44463;DHT22;30170;52.190;8.702;2022-11-15T05:21:19;11.50;99.90
44463;DHT22;30170;52.190;8.702;2022-11-15T05:23:46;11.60;99.90
44463;DHT22;30170;52.190;8.702;2022-11-15T05:26:12;11.60;99.90
44463;DHT22;30170;52.190;8.702;2022-11-15T05:28:41;11.60;99.90
44463;DHT22;30170;52.190;8.702;2022-11-15T05:31:08;11.60;99.90
44463;DHT22;30170;52.190;8.702;2022-11-15T05:33:35;11.60;99.90
44463;DHT22;30170;52.190;8.702;2022-11-15T05:36:12;11.50;99.90
44463;DHT22;30170;52.190;8.702;2022-11-15T05:38:41;11.50;99.90
44463;DHT22;30170;52.190;8.702;2022-11-15T05:41:07;11.60;99.90
44463;DHT22;30170;52.190;8.702;2022-11-15T05:43:35;11.50;99.90
44463;DHT22;30170;52.190;8.702;2022-11-15T05:46:02;11.40;99.90
44463;DHT22;30170;52.190;8.702;2022-11-15T05:48:30;11.40;99.90
44463;DHT22;30170;52.190;8.702;2022-11-15T05:50:56;11.50;99.90
44463;DHT22;30170;52.190;8.702;2022-11-15T05:53:24;11.40;99.90
44463;DHT22;30170;52.190;8.702;2022-11-15T05:55:51;11.40;99.90
44463;DHT22;30170;52.190;8.702;2022-11-15T05:58:18;11.30;99.90
44463;DHT22;30170;52.190;8.702;2022-11-15T06:00:45;11.40;99.90
44463;DHT22;30170;52.190;8.702;2022-11-15T06:03:12;11.40;99.90
44463;DHT22;30170;52.190;8.702;2022-11-15T06:05:40;11.50;99.90
44463;DHT22;30170;52.190;8.702;2022-11-15T06:08:07;11.40;99.90
44463;DHT22;30170;52.190;8.702;2022-11-15T06:10:33;11.20;99.90
44463;DHT22;30170;52.190;8.702;2022-11-15T06:13:01;11.30;99.90
44463;DHT22;30170;52.190;8.702;2022-11-15T06:15:28;11.30;99.90
44463;DHT22;30170;52.190;8.702;2022-11-15T06:17:58;11.30;99.90
44463;DHT22;30170;52.190;8.702;2022-11-15T06:20:27;11.20;99.90
44463;DHT22;30170;52.190;8.702;2022-11-15T06:22:58;11.10;99.90
44463;DHT22;30170;52.190;8.702;2022-11-15T06:25:25;11.00;99.90
44463;DHT22;30170;52.190;8.702;2022-11-15T06:27:53;11.10;99.90
44463;DHT22;30170;52.190;8.702;2022-11-15T06:30:20;11.50;99.90
44463;DHT22;30170;52.190;8.702;2022-11-15T06:32:46;11.10;99.90
44463;DHT22;30170;52.190;8.702;2022-11-15T06:35:13;11.10;99.90
44463;DHT22;30170;52.190;8.702;2022-11-15T06:37:40;11.20;99.90
44463;DHT22;30170;52.190;8.702;2022-11-15T06:40:07;11.20;99.90
44463;DHT22;30170;52.190;8.702;2022-11-15T06:42:34;11.20;99.90
44463;DHT22;30170;52.190;8.702;2022-11-15T06:45:01;11.50;99.90
44463;DHT22;30170;52.190;8.702;2022-11-15T06:47:28;11.30;99.90
44463;DHT22;30170;52.190;8.702;2022-11-15T06:49:54;11.40;99.90
44463;DHT22;30170;52.190;8.702;2022-11-15T06:52:21;11.50;99.90
44463;DHT22;30170;52.190;8.702;2022-11-15T06:54:48;11.50;99.90
44463;DHT22;30170;52.190;8.702;2022-11-15T06:57:15;11.50;99.90
44463;DHT22;30170;52.190;8.702;2022-11-15T06:59:41;12.10;99.90
44463;DHT22;30170;52.190;8.702;2022-11-15T07:02:12;11.60;99.90
44463;DHT22;30170;52.190;8.702;2022-11-15T07:04:39;11.60;99.90
44463;DHT22;30170;52.190;8.702;2022-11-15T07:07:06;11.80;99.90
44463;DHT22;30170;52.190;8.702;2022-11-15T07:09:33;11.60;99.90
44463;DHT22;30170;52.190;8.702;2022-11-15T07:11:59;11.80;99.90
44463;DHT22;30170;52.190;8.702;2022-11-15T07:14:33;11.60;99.90
44463;DHT22;30170;52.190;8.702;2022-11-15T07:16:59;11.70;99.90
44463;DHT22;30170;52.190;8.702;2022-11-15T07:19:26;12.20;99.90
44463;DHT22;30170;52.190;8.702;2022-11-15T07:21:52;11.60;99.90
44463;DHT22;30170;52.190;8.702;2022-11-15T07:24:19;11.60;99.90
44463;DHT22;30170;52.190;8.702;2022-11-15T07:26:46;11.90;99.90
44463;DHT22;30170;52.190;8.702;2022-11-15T07:29:13;11.70;99.90
44463;DHT22;30170;52.190;8.702;2022-11-15T07:31:39;11.80;99.90
44463;DHT22;30170;52.190;8.702;2022-11-15T07:34:06;12.30;99.90
44463;DHT22;30170;52.190;8.702;2022-11-15T07:36:33;12.20;99.90
44463;DHT22;30170;52.190;8.702;2022-11-15T07:38:59;12.30;99.90
44463;DHT22;30170;52.190;8.702;2022-11-15T07:41:26;12.40;99.90
44463;DHT22;30170;52.190;8.702;2022-11-15T07:43:53;12.50;99.90
44463;DHT22;30170;52.190;8.702;2022-11-15T07:46:19;12.60;99.90
44463;DHT22;30170;52.190;8.702;2022-11-15T07:48:46;12.60;99.90
44463;DHT22;30170;52.190;8.702;2022-11-15T07:51:13;12.70;99.90
44463;DHT22;30170;52.190;8.702;2022-11-15T07:53:41;12.70;99.90
44463;DHT22;30170;52.190;8.702;2022-11-15T07:56:08;12.80;99.90
44463;DHT22;30170;52.190;8.702;2022-11-15T07:58:34;12.80;99.90
44463;DHT22;30170;52.190;8.702;2022-11-15T08:01:05;12.80;99.90
44463;DHT22;30170;52.190;8.702;2022-11-15T08:03:32;12.90;99.90
44463;DHT22;30170;52.190;8.702;2022-11-15T08:06:00;12.90;99.90
44463;DHT22;30170;52.190;8.702;2022-11-15T08:08:26;13.00;99.90
44463;DHT22;30170;52.190;8.702;2022-11-15T08:10:53;13.00;99.90
44463;DHT22;30170;52.190;8.702;2022-11-15T08:13:20;13.10;99.90
44463;DHT22;30170;52.190;8.702;2022-11-15T08:15:47;13.20;99.90
44463;DHT22;30170;52.190;8.702;2022-11-15T08:18:21;13.00;99.90
44463;DHT22;30170;52.190;8.702;2022-11-15T08:20:48;13.10;99.90
44463;DHT22;30170;52.190;8.702;2022-11-15T08:23:14;13.20;99.90
44463;DHT22;30170;52.190;8.702;2022-11-15T08:25:41;13.30;99.90
44463;DHT22;30170;52.190;8.702;2022-11-15T08:28:09;13.40;99.90
44463;DHT22;30170;52.190;8.702;2022-11-15T08:30:37;13.70;99.90
44463;DHT22;30170;52.190;8.702;2022-11-15T08:33:04;13.60;99.90
44463;DHT22;30170;52.190;8.702;2022-11-15T08:35:31;13.60;99.90
44463;DHT22;30170;52.190;8.702;2022-11-15T08:37:57;13.60;99.90
44463;DHT22;30170;52.190;8.702;2022-11-15T08:40:24;13.70;99.90
44463;DHT22;30170;52.190;8.702;2022-11-15T08:42:51;13.70;99.90
44463;DHT22;30170;52.190;8.702;2022-11-15T08:45:17;13.70;99.90
44463;DHT22;30170;52.190;8.702;2022-11-15T08:47:44;13.60;99.90
44463;DHT22;30170;52.190;8.702;2022-11-15T08:50:19;13.80;99.90
44463;DHT22;30170;52.190;8.702;2022-11-15T08:52:46;13.60;99.90
44463;DHT22;30170;52.190;8.702;2022-11-15T08:55:14;13.70;99.90
44463;DHT22;30170;52.190;8.702;2022-11-15T08:57:43;13.60;99.90
44463;DHT22;30170;52.190;8.702;2022-11-15T09:00:10;13.60;99.90
44463;DHT22;30170;52.190;8.702;2022-11-15T09:02:38;13.60;99.90
44463;DHT22;30170;52.190;8.702;2022-11-15T09:05:05;13.60;99.90
44463;DHT22;30170;52.190;8.702;2022-11-15T09:07:32;13.70;99.90
44463;DHT22;30170;52.190;8.702;2022-11-15T09:09:59;13.80;99.90
44463;DHT22;30170;52.190;8.702;2022-11-15T09:12:26;14.00;99.90
44463;DHT22;30170;52.190;8.702;2022-11-15T09:14:52;14.00;99.90
44463;DHT22;30170;52.190;8.702;2022-11-15T09:17:19;13.80;99.90
44463;DHT22;30170;52.190;8.702;2022-11-15T09:19:50;13.90;99.90
44463;DHT22;30170;52.190;8.702;2022-11-15T09:22:17;14.10;99.90
44463;DHT22;30170;52.190;8.702;2022-11-15T09:24:44;14.20;99.90
44463;DHT22;30170;52.190;8.702;2022-11-15T09:27:10;14.40;99.90
44463;DHT22;30170;52.190;8.702;2022-11-15T09:29:38;15.10;99.90
44463;DHT22;30170;52.190;8.702;2022-11-15T09:32:04;14.50;99.90
44463;DHT22;30170;52.190;8.702;2022-11-15T09:34:31;14.50;99.90
44463;DHT22;30170;52.190;8.702;2022-11-15T09:36:58;14.70;99.90
44463;DHT22;30170;52.190;8.702;2022-11-15T09:39:24;14.60;99.90
44463;DHT22;30170;52.190;8.702;2022-11-15T09:49:51;16.70;99.90
44463;DHT22;30170;52.190;8.702;2022-11-15T09:52:23;17.60;98.60
44463;DHT22;30170;52.190;8.702;2022-11-15T09:54:51;18.30;94.80
44463;DHT22;30170;52.190;8.702;2022-11-15T09:57:23;18.50;92.60
44463;DHT22;30170;52.190;8.702;2022-11-15T10:03:30;18.30;92.20
44463;DHT22;30170;52.190;8.702;2022-11-15T10:05:38;17.80;92.10
44463;DHT22;30170;52.190;8.702;2022-11-15T10:10:39;17.70;92.40
44463;DHT22;30170;52.190;8.702;2022-11-15T10:13:13;18.20;91.10
44463;DHT22;30170;52.190;8.702;2022-11-15T10:15:41;18.20;90.20
44463;DHT22;30170;52.190;8.702;2022-11-15T10:18:14;18.50;89.20
44463;DHT22;30170;52.190;8.702;2022-11-15T10:23:11;18.50;72.00
44463;DHT22;30170;52.190;8.702;2022-11-15T10:25:39;18.70;72.30
44463;DHT22;30170;52.190;8.702;2022-11-15T10:28:22;18.60;70.60
44463;DHT22;30170;52.190;8.702;2022-11-15T10:30:52;18.70;68.90
44463;DHT22;30170;52.190;8.702;2022-11-15T10:41:17;19.00;67.90
44463;DHT22;30170;52.190;8.702;2022-11-15T10:43:44;19.70;65.30
44463;DHT22;30170;52.190;8.702;2022-11-15T10:46:22;19.30;65.80
44463;DHT22;30170;52.190;8.702;2022-11-15T10:49:12;19.70;64.60
44463;DHT22;30170;52.190;8.702;2022-11-15T10:51:44;19.70;63.60
44463;DHT22;30170;52.190;8.702;2022-11-15T10:54:11;19.60;64.00
44463;DHT22;30170;52.190;8.702;2022-11-15T10:56:48;19.30;64.10
44463;DHT22;30170;52.190;8.702;2022-11-15T10:59:17;19.00;63.80
44463;DHT22;30170;52.190;8.702;2022-11-15T11:01:46;19.50;63.40
44463;DHT22;30170;52.190;8.702;2022-11-15T11:04:13;20.60;61.90
44463;DHT22;30170;52.190;8.702;2022-11-15T11:06:53;21.60;60.20
44463;DHT22;30170;52.190;8.702;2022-11-15T11:09:28;22.30;58.40
44463;DHT22;30170;52.190;8.702;2022-11-15T11:11:56;23.30;56.20
44463;DHT22;30170;52.190;8.702;2022-11-15T11:14:34;23.30;55.80
44463;DHT22;30170;52.190;8.702;2022-11-15T11:32:32;23.10;50.40
44463;DHT22;30170;52.190;8.702;2022-11-15T11:35:03;22.80;51.20
44463;DHT22;30170;52.190;8.702;2022-11-15T11:45:15;24.10;50.10
44463;DHT22;30170;52.190;8.702;2022-11-15T11:47:51;23.40;51.30
44463;DHT22;30170;52.190;8.702;2022-11-15T11:50:20;23.80;50.60
44463;DHT22;30170;52.190;8.702;2022-11-15T11:52:58;24.80;50.50
44463;DHT22;30170;52.190;8.702;2022-11-15T11:55:36;25.40;51.60
44463;DHT22;30170;52.190;8.702;2022-11-15T12:00:51;26.50;50.70
44463;DHT22;30170;52.190;8.702;2022-11-15T12:08:51;25.40;52.00
44463;DHT22;30170;52.190;8.702;2022-11-15T12:11:23;25.20;52.10
44463;DHT22;30170;52.190;8.702;2022-11-15T12:13:56;25.30;51.30
44463;DHT22;30170;52.190;8.702;2022-11-15T12:16:28;25.70;52.40
44463;DHT22;30170;52.190;8.702;2022-11-15T12:18:56;25.70;51.20
44463;DHT22;30170;52.190;8.702;2022-11-15T12:21:31;25.60;51.60
44463;DHT22;30170;52.190;8.702;2022-11-15T12:24:02;25.70;52.30
44463;DHT22;30170;52.190;8.702;2022-11-15T12:26:32;25.50;54.30
44463;DHT22;30170;52.190;8.702;2022-11-15T12:29:01;25.50;52.50
44463;DHT22;30170;52.190;8.702;2022-11-15T12:34:46;24.70;56.30
44463;DHT22;30170;52.190;8.702;2022-11-15T12:36:49;25.50;62.30
44463;DHT22;30170;52.190;8.702;2022-11-15T12:39:16;25.00;59.20
44463;DHT22;30170;52.190;8.702;2022-11-15T12:41:43;24.70;58.10
44463;DHT22;30170;52.190;8.702;2022-11-15T12:44:12;24.90;57.70
44463;DHT22;30170;52.190;8.702;2022-11-15T12:49:51;24.50;58.20
44463;DHT22;30170;52.190;8.702;2022-11-15T13:02:36;25.80;59.30
44463;DHT22;30170;52.190;8.702;2022-11-15T13:17:55;23.80;64.10
44463;DHT22;30170;52.190;8.702;2022-11-15T13:27:51;24.30;67.10
44463;DHT22;30170;52.190;8.702;2022-11-15T13:30:22;24.20;68.10
44463;DHT22;30170;52.190;8.702;2022-11-15T13:32:49;24.00;67.80
44463;DHT22;30170;52.190;8.702;2022-11-15T13:35:26;23.30;70.00
44463;DHT22;30170;52.190;8.702;2022-11-15T13:37:54;22.70;70.00
44463;DHT22;30170;52.190;8.702;2022-11-15T13:40:28;23.00;70.80
44463;DHT22;30170;52.190;8.702;2022-11-15T13:42:57;22.70;69.90
44463;DHT22;30170;52.190;8.702;2022-11-15T13:45:24;22.90;68.90
44463;DHT22;30170;52.190;8.702;2022-11-15T13:47:52;22.90;68.80
44463;DHT22;30170;52.190;8.702;2022-11-15T13:50:19;23.50;68.60
44463;DHT22;30170;52.190;8.702;2022-11-15T13:52:47;23.90;67.30
44463;DHT22;30170;52.190;8.702;2022-11-15T13:55:16;23.90;67.10
44463;DHT22;30170;52.190;8.702;2022-11-15T13:57:45;23.50;67.30
44463;DHT22;30170;52.190;8.702;2022-11-15T14:02:51;23.80;66.30
44463;DHT22;30170;52.190;8.702;2022-11-15T14:05:19;23.90;66.50
44463;DHT22;30170;52.190;8.702;2022-11-15T14:07:59;23.90;66.10
44463;DHT22;30170;52.190;8.702;2022-11-15T14:10:31;23.90;66.10
44463;DHT22;30170;52.190;8.702;2022-11-15T14:12:58;24.20;66.70
44463;DHT22;30170;52.190;8.702;2022-11-15T14:15:35;24.10;66.10
44463;DHT22;30170;52.190;8.702;2022-11-15T14:18:03;23.40;66.00
44463;DHT22;30170;52.190;8.702;2022-11-15T14:22:59;22.70;68.30
44463;DHT22;30170;52.190;8.702;2022-11-15T14:25:27;22.80;67.50
44463;DHT22;30170;52.190;8.702;2022-11-15T14:28:09;23.00;67.40
44463;DHT22;30170;52.190;8.702;2022-11-15T14:30:36;22.80;67.10
44463;DHT22;30170;52.190;8.702;2022-11-15T14:33:14;22.00;69.10
44463;DHT22;30170;52.190;8.702;2022-11-15T14:35:43;21.70;70.50
44463;DHT22;30170;52.190;8.702;2022-11-15T14:38:10;21.30;71.10
44463;DHT22;30170;52.190;8.702;2022-11-15T14:40:37;20.70;71.70
44463;DHT22;30170;52.190;8.702;2022-11-15T14:43:03;20.30;72.90
44463;DHT22;30170;52.190;8.702;2022-11-15T14:45:30;19.10;75.70
44463;DHT22;30170;52.190;8.702;2022-11-15T14:47:57;18.30;72.60
44463;DHT22;30170;52.190;8.702;2022-11-15T14:50:23;17.40;70.00
44463;DHT22;30170;52.190;8.702;2022-11-15T14:52:50;16.70;72.00
44463;DHT22;30170;52.190;8.702;2022-11-15T14:57:44;15.90;76.50
44463;DHT22;30170;52.190;8.702;2022-11-15T15:00:12;15.40;79.40
44463;DHT22;30170;52.190;8.702;2022-11-15T15:02:39;15.10;83.20
44463;DHT22;30170;52.190;8.702;2022-11-15T15:05:26;14.90;84.20
44463;DHT22;30170;52.190;8.702;2022-11-15T15:07:55;14.70;86.20
44463;DHT22;30170;52.190;8.702;2022-11-15T15:10:22;14.40;88.80
44463;DHT22;30170;52.190;8.702;2022-11-15T15:13:16;14.30;90.80
44463;DHT22;30170;52.190;8.702;2022-11-15T15:15:44;14.10;91.70
44463;DHT22;30170;52.190;8.702;2022-11-15T15:18:10;13.90;93.70
44463;DHT22;30170;52.190;8.702;2022-11-15T15:20:38;13.70;93.80
44463;DHT22;30170;52.190;8.702;2022-11-15T15:23:08;13.60;94.90
44463;DHT22;30170;52.190;8.702;2022-11-15T15:25:40;13.50;96.90
44463;DHT22;30170;52.190;8.702;2022-11-15T15:28:10;13.40;97.40
44463;DHT22;30170;52.190;8.702;2022-11-15T15:30:40;13.40;98.80
44463;DHT22;30170;52.190;8.702;2022-11-15T15:33:07;13.20;99.60
44463;DHT22;30170;52.190;8.702;2022-11-15T15:35:34;13.10;99.90
44463;DHT22;30170;52.190;8.702;2022-11-15T15:38:01;13.10;99.90
44463;DHT22;30170;52.190;8.702;2022-11-15T15:40:29;12.90;99.90
44463;DHT22;30170;52.190;8.702;2022-11-15T15:42:56;12.90;99.90
44463;DHT22;30170;52.190;8.702;2022-11-15T15:45:24;12.70;99.90
44463;DHT22;30170;52.190;8.702;2022-11-15T15:47:51;12.80;99.90
44463;DHT22;30170;52.190;8.702;2022-11-15T15:52:49;12.80;99.90
44463;DHT22;30170;52.190;8.702;2022-11-15T15:55:16;12.80;99.90
44463;DHT22;30170;52.190;8.702;2022-11-15T15:57:43;12.70;99.90
44463;DHT22;30170;52.190;8.702;2022-11-15T16:00:10;12.70;99.90
44463;DHT22;30170;52.190;8.702;2022-11-15T16:02:37;12.70;99.90
44463;DHT22;30170;52.190;8.702;2022-11-15T16:05:06;12.70;99.90
44463;DHT22;30170;52.190;8.702;2022-11-15T16:07:33;12.70;99.90
44463;DHT22;30170;52.190;8.702;2022-11-15T16:10:00;12.70;99.90
44463;DHT22;30170;52.190;8.702;2022-11-15T16:12:30;12.70;99.90
44463;DHT22;30170;52.190;8.702;2022-11-15T16:14:57;12.60;99.90
44463;DHT22;30170;52.190;8.702;2022-11-15T16:17:31;12.70;99.90
44463;DHT22;30170;52.190;8.702;2022-11-15T16:20:00;12.60;99.90
44463;DHT22;30170;52.190;8.702;2022-11-15T16:22:26;12.60;99.90
44463;DHT22;30170;52.190;8.702;2022-11-15T16:24:55;12.60;99.90
44463;DHT22;30170;52.190;8.702;2022-11-15T16:27:22;12.60;99.90
44463;DHT22;30170;52.190;8.702;2022-11-15T16:29:49;12.50;99.90
44463;DHT22;30170;52.190;8.702;2022-11-15T16:32:16;12.50;99.90
44463;DHT22;30170;52.190;8.702;2022-11-15T16:34:43;12.50;99.90
44463;DHT22;30170;52.190;8.702;2022-11-15T16:37:23;12.50;99.90
44463;DHT22;30170;52.190;8.702;2022-11-15T16:39:50;12.50;99.90
44463;DHT22;30170;52.190;8.702;2022-11-15T16:42:22;12.40;99.90
44463;DHT22;30170;52.190;8.702;2022-11-15T16:44:49;12.50;99.90
44463;DHT22;30170;52.190;8.702;2022-11-15T16:47:18;12.40;99.90
44463;DHT22;30170;52.190;8.702;2022-11-15T16:49:48;12.40;99.90
44463;DHT22;30170;52.190;8.702;2022-11-15T16:52:15;12.40;99.90
44463;DHT22;30170;52.190;8.702;2022-11-15T16:54:46;12.40;99.90
44463;DHT22;30170;52.190;8.702;2022-11-15T16:57:13;12.40;99.90
44463;DHT22;30170;52.190;8.702;2022-11-15T16:59:40;12.50;99.90
44463;DHT22;30170;52.190;8.702;2022-11-15T17:02:10;12.40;99.90
44463;DHT22;30170;52.190;8.702;2022-11-15T17:04:37;12.50;99.90
44463;DHT22;30170;52.190;8.702;2022-11-15T17:07:04;12.50;99.90
44463;DHT22;30170;52.190;8.702;2022-11-15T17:09:31;12.50;99.90
44463;DHT22;30170;52.190;8.702;2022-11-15T17:11:58;12.40;99.90
44463;DHT22;30170;52.190;8.702;2022-11-15T17:14:25;12.50;99.90
44463;DHT22;30170;52.190;8.702;2022-11-15T17:16:51;12.40;99.90
44463;DHT22;30170;52.190;8.702;2022-11-15T17:19:20;12.40;99.90
44463;DHT22;30170;52.190;8.702;2022-11-15T17:21:47;12.50;99.90
44463;DHT22;30170;52.190;8.702;2022-11-15T17:24:16;12.50;99.90
44463;DHT22;30170;52.190;8.702;2022-11-15T17:26:46;12.40;99.90
44463;DHT22;30170;52.190;8.702;2022-11-15T17:29:12;12.50;99.90
44463;DHT22;30170;52.190;8.702;2022-11-15T17:31:39;12.30;99.90
44463;DHT22;30170;52.190;8.702;2022-11-15T17:34:06;12.50;99.90
44463;DHT22;30170;52.190;8.702;2022-11-15T17:36:33;12.50;99.90
44463;DHT22;30170;52.190;8.702;2022-11-15T17:39:00;12.40;99.90
44463;DHT22;30170;52.190;8.702;2022-11-15T17:41:27;12.50;99.90
44463;DHT22;30170;52.190;8.702;2022-11-15T17:43:57;12.50;99.90
44463;DHT22;30170;52.190;8.702;2022-11-15T17:46:25;12.60;99.90
44463;DHT22;30170;52.190;8.702;2022-11-15T17:48:53;12.50;99.90
44463;DHT22;30170;52.190;8.702;2022-11-15T17:51:20;12.40;99.90
44463;DHT22;30170;52.190;8.702;2022-11-15T17:53:48;12.30;99.90